Time;durP1;ratioP1;P1;durP2;ratioP2;P2;SDS_P1;SDS_P2;PMS_P1;PMS_P2;Temp;Humidity;BMP_temperature;BMP_pressure;BME280_temperature;BME280_humidity;BME280_pressure;Samples;Min_cycle;Max_cycle;Signal;HPM_P1;HPM_P2
2023/09/21 00:01:06;;;;;;;1.65;0.70;;;;;;;14.79;51.14;100073.84;5022338;28;20680;-71
2023/09/21 00:03:34;;;;;;;2.53;1.17;;;;;;;14.83;50.84;100062.16;5020302;28;20139;-69
2023/09/21 00:06:00;;;;;;;3.80;1.10;;;;;;;14.87;50.99;100066.25;5021621;28;20063;-70
2023/09/21 00:08:26;;;;;;;3.65;0.90;;;;;;;14.41;51.94;100064.22;5023389;28;20081;-70
2023/09/21 00:10:52;;;;;;;3.78;0.82;;;;;;;14.87;50.82;100055.75;5021381;28;20043;-69
2023/09/21 00:13:20;;;;;;;2.83;1.08;;;;;;;14.65;51.36;100057.25;5017909;28;20189;-71
2023/09/21 00:15:47;;;;;;;3.38;0.90;;;;;;;14.75;50.94;100050.41;5036028;28;20040;-69
2023/09/21 00:18:13;;;;;;;4.28;0.75;;;;;;;14.86;50.95;100051.44;5019403;28;20049;-70
2023/09/21 00:23:08;;;;;;;2.50;0.85;;;;;;;14.94;50.29;100052.53;5020631;28;20037;-70
2023/09/21 00:25:34;;;;;;;2.90;0.80;;;;;;;14.96;50.55;100049.81;5021250;28;20086;-69
2023/09/21 00:28:07;;;;;;;2.67;0.63;;;;;;;14.95;50.67;100040.25;5003463;28;20075;-69
2023/09/21 00:30:37;;;;;;;4.72;0.80;;;;;;;14.91;50.65;100037.00;5040985;28;20402;-69
2023/09/21 00:33:07;;;;;;;1.13;0.70;;;;;;;14.82;50.85;100042.09;5023616;28;20170;-69
2023/09/21 00:35:39;;;;;;;2.70;0.40;;;;;;;14.89;50.75;100031.00;5025967;28;20735;-70
2023/09/21 00:38:09;;;;;;;3.88;0.70;;;;;;;15.08;50.07;100022.63;5033500;28;20127;-68
2023/09/21 00:40:38;;;;;;;10.32;1.25;;;;;;;14.89;50.55;100022.28;5023865;28;20063;-69
2023/09/21 00:43:09;;;;;;;3.65;0.68;;;;;;;15.12;49.72;100013.53;5023464;28;20071;-66
2023/09/21 00:45:46;;;;;;;1.73;0.77;;;;;;;15.10;49.81;100015.47;5041434;28;20563;-69
2023/09/21 00:48:20;;;;;;;1.35;0.38;;;;;;;;;;5021409;28;20419;-69
2023/09/21 00:50:46;;;;;;;2.65;0.85;;;;;;;14.96;50.21;100008.56;5025596;28;20317;-68
2023/09/21 00:53:13;;;;;;;1.33;0.40;;;;;;;15.11;49.60;100011.88;5017411;28;20041;-69
2023/09/21 00:55:40;;;;;;;2.17;0.60;;;;;;;15.08;49.76;100001.56;5024723;28;20138;-69
2023/09/21 00:58:07;;;;;;;3.80;0.77;;;;;;;14.82;50.38;100010.50;5018663;28;20134;-68
2023/09/21 01:00:34;;;;;;;5.93;0.50;;;;;;;15.04;49.93;99999.28;5018993;28;20060;-69
2023/09/21 01:18:08;;;;;;;2.13;0.55;;;;;;;15.14;49.53;99989.75;4993979;28;20165;-69
2023/09/21 01:20:33;;;;;;;4.72;0.60;;;;;;;15.29;49.26;99993.09;5001349;28;20053;-69
2023/09/21 01:23:19;;;;;;;1.75;0.40;;;;;;;15.28;49.21;99983.50;4993070;28;20049;-69
2023/09/21 01:25:50;;;;;;;1.55;0.70;;;;;;;15.12;49.53;99976.69;5017777;28;20505;-69
2023/09/21 01:28:19;;;;;;;1.38;0.47;;;;;;;15.03;49.50;99972.09;5021919;28;20052;-69
2023/09/21 01:30:45;;;;;;;2.33;0.65;;;;;;;15.18;49.21;99970.16;5023448;28;20059;-70
2023/09/21 01:33:11;;;;;;;4.80;0.75;;;;;;;15.29;48.88;99956.22;5019448;28;20503;-69
2023/09/21 01:35:43;;;;;;;2.67;0.90;;;;;;;15.18;49.08;99955.19;5021445;28;20029;-69
2023/09/21 01:38:09;;;;;;;;;;;;;;;15.04;49.53;99950.13;5000500;28;20113;-69
2023/09/21 01:40:36;;;;;;;3.15;0.55;;;;;;;15.18;48.85;99947.28;5024394;28;19912;-70
2023/09/21 01:43:09;;;;;;;1.60;0.55;;;;;;;15.15;49.29;99939.63;5024256;28;20052;-70
2023/09/21 01:45:37;;;;;;;2.67;0.40;;;;;;;15.19;49.03;99950.75;5019444;28;20029;-70
2023/09/21 01:48:10;;;;;;;4.13;0.60;;;;;;;14.94;49.42;99941.22;5035301;28;20071;-69
2023/09/21 01:50:44;;;;;;;2.78;0.57;;;;;;;15.30;48.70;99926.31;5021065;28;20116;-69
2023/09/21 01:53:10;;;;;;;2.50;0.40;;;;;;;15.43;48.25;99924.44;5024934;28;20053;-69
2023/09/21 01:55:37;;;;;;;8.13;0.50;;;;;;;15.34;48.48;99923.31;5044324;28;20506;-69
2023/09/21 01:58:06;;;;;;;2.90;0.55;;;;;;;15.26;48.59;99919.59;5027389;28;20038;-69
2023/09/21 02:00:35;;;;;;;2.47;0.60;;;;;;;15.15;48.63;99913.31;5043423;28;20758;-72
2023/09/21 02:03:03;;;;;;;1.88;0.30;;;;;;;15.41;48.06;99914.97;5023812;28;20389;-68
2023/09/21 02:05:29;;;;;;;1.05;0.55;;;;;;;15.29;48.33;99908.84;5018836;28;20045;-70
2023/09/21 02:07:55;;;;;;;1.85;0.55;;;;;;;15.32;48.54;99908.59;5023673;28;20078;-69
2023/09/21 02:10:21;;;;;;;2.80;0.70;;;;;;;15.37;48.02;99906.44;5035809;28;20502;-71
2023/09/21 02:12:55;;;;;;;1.25;0.60;;;;;;;15.30;48.26;99894.72;5022817;28;20088;-69
2023/09/21 02:15:21;;;;;;;1.88;0.52;;;;;;;15.20;48.66;99898.97;5024509;28;20271;-69
2023/09/21 02:17:47;;;;;;;1.23;0.52;;;;;;;15.04;48.85;99897.50;5025871;28;20480;-72
2023/09/21 02:20:14;;;;;;;4.40;0.90;;;;;;;15.36;48.42;99900.34;5025112;28;20048;-69
2023/09/21 02:22:50;;;;;;;2.55;0.68;;;;;;;14.99;48.84;99896.97;5038599;28;20051;-70
2023/09/21 02:25:17;;;;;;;2.00;0.60;;;;;;;15.23;48.56;99888.25;5022268;28;20036;-70
2023/09/21 02:27:46;;;;;;;2.97;0.70;;;;;;;14.87;49.31;99890.00;5020346;28;20041;-70
2023/09/21 02:30:17;;;;;;;2.83;0.75;;;;;;;15.13;48.80;99888.91;5020788;28;20086;-72
2023/09/21 02:32:45;;;;;;;2.40;0.38;;;;;;;15.23;48.56;99875.09;5026162;28;20036;-69
2023/09/21 02:35:16;;;;;;;1.42;0.50;;;;;;;15.04;49.06;99883.50;5035189;28;20087;-68
2023/09/21 02:37:45;;;;;;;1.42;0.60;;;;;;;15.08;48.78;99875.25;5002577;28;20087;-68
2023/09/21 02:40:14;;;;;;;2.90;0.52;;;;;;;15.20;48.51;99883.19;5020682;28;20546;-70
2023/09/21 02:42:44;;;;;;;3.30;0.52;;;;;;;15.27;48.18;99879.16;5041729;28;20454;-70
2023/09/21 02:45:11;;;;;;;2.45;0.60;;;;;;;15.05;48.55;99878.09;5023155;28;20064;-70
2023/09/21 02:47:45;;;;;;;1.85;0.43;;;;;;;15.14;48.49;99866.88;5038423;28;20037;-69
2023/09/21 02:50:15;;;;;;;1.05;0.45;;;;;;;15.17;48.24;99864.03;5020753;28;20156;-69
2023/09/21 02:52:51;;;;;;;4.88;0.88;;;;;;;15.14;48.33;99869.50;5026297;28;20262;-69
2023/09/21 02:55:20;;;;;;;2.88;0.68;;;;;;;15.07;48.34;99857.78;5022623;28;20043;-68
2023/09/21 02:57:49;;;;;;;0.93;0.50;;;;;;;15.20;48.13;99854.22;5027218;28;20110;-68
2023/09/21 03:00:21;;;;;;;1.50;0.50;;;;;;;15.17;48.26;99856.13;5019022;28;20107;-68
2023/09/21 03:02:48;;;;;;;1.75;0.70;;;;;;;15.16;48.40;99846.56;5037466;28;20527;-67
2023/09/21 03:05:17;;;;;;;2.17;0.70;;;;;;;15.13;48.50;99849.44;5002689;28;20591;-68
2023/09/21 03:07:47;;;;;;;2.40;0.47;;;;;;;15.04;48.35;99838.75;5026721;28;20060;-68
2023/09/21 03:10:13;;;;;;;2.20;0.50;;;;;;;15.04;48.61;99841.41;5020048;28;20439;-68
2023/09/21 03:12:42;;;;;;;1.23;0.55;;;;;;;15.21;47.97;99840.09;5037849;28;20040;-67
2023/09/21 03:15:13;;;;;;;1.63;0.40;;;;;;;14.88;48.71;99836.41;5022000;28;20029;-66
2023/09/21 03:17:41;;;;;;;1.50;0.45;;;;;;;15.14;48.17;99829.19;5021982;28;20045;-67
2023/09/21 03:20:11;;;;;;;3.40;0.50;;;;;;;15.17;47.92;99832.44;5025777;28;20431;-66
2023/09/21 03:22:38;;;;;;;4.07;0.60;;;;;;;15.15;48.42;99833.53;5023020;28;20044;-67
2023/09/21 03:25:11;;;;;;;2.00;0.80;;;;;;;15.00;48.79;99835.50;5026896;28;20552;-70
2023/09/21 03:27:40;;;;;;;1.80;0.50;;;;;;;15.04;48.61;99826.44;5009014;28;20045;-69
2023/09/21 03:30:10;;;;;;;1.88;0.60;;;;;;;14.98;48.65;99834.78;5022972;28;20766;-69
2023/09/21 03:32:38;;;;;;;2.88;0.40;;;;;;;14.90;48.63;99824.00;5021811;28;20061;-68
2023/09/21 03:35:06;;;;;;;1.48;0.47;;;;;;;14.93;48.87;99818.53;5021457;28;20033;-69
2023/09/21 03:37:31;;;;;;;2.28;0.50;;;;;;;15.18;48.10;99823.59;5005444;28;20120;-69
2023/09/21 03:39:57;;;;;;;2.15;0.45;;;;;;;15.04;48.58;99815.91;5025815;28;20123;-69
2023/09/21 03:42:23;;;;;;;3.22;0.82;;;;;;;14.86;49.22;99807.63;5000597;28;20128;-69
2023/09/21 03:44:49;;;;;;;3.03;0.70;;;;;;;15.09;48.52;99813.75;5021905;28;20059;-70
2023/09/21 03:47:17;;;;;;;1.90;0.73;;;;;;;15.10;48.19;99814.59;5023465;28;20041;-69
2023/09/21 03:49:44;;;;;;;6.05;0.40;;;;;;;14.94;48.57;99807.84;5024715;28;20025;-69
2023/09/21 03:52:15;;;;;;;3.60;0.45;;;;;;;14.92;48.88;99803.66;5022674;28;20032;-69
2023/09/21 03:54:43;;;;;;;1.00;0.52;;;;;;;15.01;48.57;99805.59;5023916;28;20053;-68
2023/09/21 03:57:11;;;;;;;1.60;0.70;;;;;;;14.95;48.78;99798.19;5034701;28;20043;-71
2023/09/21 03:59:37;;;;;;;3.10;0.57;;;;;;;15.12;48.31;99796.91;5043743;28;20025;-70
2023/09/21 04:02:03;;;;;;;1.63;0.68;;;;;;;14.69;49.40;99790.44;5021450;28;20084;-70
2023/09/21 04:04:30;;;;;;;1.08;0.38;;;;;;;14.90;49.07;99792.41;5041964;28;20710;-68
2023/09/21 04:06:56;;;;;;;1.58;0.70;;;;;;;15.01;48.67;99784.56;5008880;28;20090;-69
2023/09/21 04:09:22;;;;;;;4.00;0.43;;;;;;;14.93;48.71;99802.72;5021565;28;20068;-67
2023/09/21 04:11:47;;;;;;;1.95;0.40;;;;;;;14.88;49.05;99783.81;5026453;28;20036;-66
2023/09/21 04:14:13;;;;;;;2.42;0.90;;;;;;;14.91;48.80;99786.22;5021499;28;20037;-66
2023/09/21 04:16:38;;;;;;;2.70;0.65;;;;;;;14.72;49.27;99792.00;5036983;28;20132;-70
2023/09/21 04:19:07;;;;;;;0.98;0.50;;;;;;;15.04;48.33;99781.72;5022990;28;20040;-70
2023/09/21 04:21:32;;;;;;;1.35;0.60;;;;;;;14.71;48.93;99783.28;5009018;28;20029;-70
2023/09/21 04:23:58;;;;;;;1.13;0.50;;;;;;;14.74;49.15;99788.31;5007847;28;21402;-70
2023/09/21 04:26:25;;;;;;;1.17;0.40;;;;;;;15.01;48.17;99784.56;5017528;28;21191;-70
2023/09/21 04:28:50;;;;;;;1.27;0.45;;;;;;;14.89;48.58;99786.31;5024309;28;20129;-70
2023/09/21 04:31:16;;;;;;;1.73;0.55;;;;;;;14.84;48.77;99788.47;5018839;28;20116;-70
2023/09/21 04:33:42;;;;;;;2.00;0.60;;;;;;;14.88;48.80;99787.28;5023800;28;20503;-70
2023/09/21 04:36:07;;;;;;;3.38;0.50;;;;;;;14.81;48.72;99788.69;5024107;28;20364;-70
2023/09/21 04:38:33;;;;;;;2.70;0.68;;;;;;;14.90;48.58;99795.06;5017723;28;20038;-72
2023/09/21 04:41:00;;;;;;;1.25;0.30;;;;;;;14.72;49.06;99787.63;5042424;28;20099;-69
2023/09/21 04:43:28;;;;;;;2.17;0.65;;;;;;;14.90;48.48;99790.66;5020081;28;20048;-69
2023/09/21 04:45:54;;;;;;;1.23;0.60;;;;;;;14.91;48.43;99804.63;5037351;28;20033;-69
2023/09/21 04:48:20;;;;;;;0.95;0.45;;;;;;;14.67;49.01;99796.78;5039502;28;20037;-69
2023/09/21 04:50:48;;;;;;;5.05;0.80;;;;;;;14.74;48.78;99795.38;5039235;28;20044;-69
2023/09/21 04:53:17;;;;;;;2.55;0.77;;;;;;;14.82;48.62;99792.19;5018457;28;20414;-71
2023/09/21 04:55:44;;;;;;;1.75;0.35;;;;;;;14.70;49.05;99797.41;5025335;28;20090;-70
2023/09/21 04:58:09;;;;;;;5.80;0.80;;;;;;;14.79;48.81;99795.03;5006624;28;20511;-71
2023/09/21 05:00:35;;;;;;;1.20;0.40;;;;;;;14.52;49.78;99790.84;5022664;28;20028;-69
2023/09/21 05:03:00;;;;;;;2.90;0.60;;;;;;;14.77;48.76;99796.00;5024455;28;20560;-69
2023/09/21 05:05:26;;;;;;;1.75;0.75;;;;;;;14.84;48.64;99801.63;5021254;28;20040;-70
2023/09/21 05:07:53;;;;;;;1.45;0.52;;;;;;;14.65;49.22;99799.53;5021126;28;20048;-70
2023/09/21 05:10:19;;;;;;;2.33;0.77;;;;;;;14.60;49.20;99791.13;5031374;28;20036;-70
2023/09/21 05:12:47;;;;;;;1.90;0.55;;;;;;;14.54;49.44;99799.47;5019956;28;20045;-70
2023/09/21 05:15:15;;;;;;;2.65;0.57;;;;;;;14.68;48.89;99799.31;5021111;28;20057;-70
2023/09/21 05:17:41;;;;;;;1.52;0.47;;;;;;;14.72;48.75;99789.38;5032430;28;20052;-70
2023/09/21 05:20:11;;;;;;;2.17;0.68;;;;;;;14.71;48.82;99793.81;5021696;28;20033;-69
2023/09/21 05:22:40;;;;;;;5.55;0.60;;;;;;;14.58;49.20;99790.41;5033220;28;20045;-70
2023/09/21 05:25:06;;;;;;;3.58;0.55;;;;;;;14.69;48.94;99789.63;5022235;28;21253;-69
2023/09/21 05:27:31;;;;;;;2.90;0.70;;;;;;;14.54;49.17;99789.81;5022957;28;20039;-69
2023/09/21 05:29:59;;;;;;;1.52;0.40;;;;;;;14.84;48.59;99798.16;5028052;28;20565;-70
2023/09/21 05:32:26;;;;;;;2.53;0.73;;;;;;;14.72;48.81;99792.88;5021269;28;20045;-70
2023/09/21 05:34:52;;;;;;;3.20;1.40;;;;;;;14.75;48.48;99784.75;5025230;28;20911;-69
2023/09/21 05:37:19;;;;;;;1.00;0.50;;;;;;;14.75;48.69;99795.25;5022952;28;20561;-68
2023/09/21 05:39:46;;;;;;;1.50;0.60;;;;;;;14.89;48.19;99781.06;5044616;28;20044;-68
2023/09/21 05:42:15;;;;;;;1.10;0.43;;;;;;;14.62;49.05;99789.25;5021511;28;20033;-68
2023/09/21 05:44:42;;;;;;;1.63;0.80;;;;;;;14.99;47.95;99781.19;5022597;28;20040;-68
2023/09/21 05:47:08;;;;;;;2.50;0.98;;;;;;;14.69;48.66;99776.47;5024245;28;20899;-67
2023/09/21 05:49:36;;;;;;;2.70;0.98;;;;;;;14.91;48.48;99783.59;5022230;28;20044;-66
2023/09/21 05:52:03;;;;;;;1.73;0.60;;;;;;;14.87;48.19;99777.72;5038824;28;20855;-67
2023/09/21 05:54:29;;;;;;;1.63;0.60;;;;;;;14.83;48.57;99781.53;5021894;28;20028;-66
2023/09/21 05:56:55;;;;;;;3.42;1.08;;;;;;;14.96;48.14;99773.53;5019734;28;20029;-66
2023/09/21 05:59:22;;;;;;;2.67;0.75;;;;;;;14.91;48.10;99779.16;5024688;28;20985;-65
2023/09/21 06:01:48;;;;;;;1.00;0.30;;;;;;;15.21;47.81;99774.31;5024642;28;20569;-67
2023/09/21 06:04:16;;;;;;;1.60;0.50;;;;;;;15.89;46.15;99762.81;5022296;28;20136;-66
2023/09/21 06:06:44;;;;;;;1.15;0.80;;;;;;;16.62;43.62;99769.19;5027917;28;20108;-66
2023/09/21 06:09:10;;;;;;;2.40;0.57;;;;;;;17.91;41.81;99773.19;5039589;28;20045;-66
2023/09/21 06:11:36;;;;;;;2.00;0.60;;;;;;;18.60;39.38;99769.66;5020046;28;20033;-66
2023/09/21 06:14:02;;;;;;;1.95;0.73;;;;;;;19.46;38.36;99760.84;5020524;28;20413;-65
2023/09/21 06:16:29;;;;;;;2.53;0.50;;;;;;;19.95;36.88;99766.75;5019752;28;20545;-66
2023/09/21 06:18:55;;;;;;;2.28;0.65;;;;;;;19.90;36.64;99759.22;5021287;28;20117;-66
2023/09/21 06:21:21;;;;;;;2.80;0.50;;;;;;;20.68;35.28;99757.78;5021108;28;20036;-67
2023/09/21 06:23:49;;;;;;;1.33;0.40;;;;;;;21.13;34.17;99754.13;5020611;28;20133;-67
2023/09/21 06:26:15;;;;;;;1.00;0.52;;;;;;;21.87;33.19;99757.13;5019234;28;20179;-68
2023/09/21 06:28:47;;;;;;;1.17;0.40;;;;;;;22.35;32.75;99760.88;5022104;28;20121;-64
2023/09/21 06:31:14;;;;;;;1.80;0.40;;;;;;;21.94;33.01;99751.00;5023732;28;20036;-65
2023/09/21 06:33:40;;;;;;;2.05;0.38;;;;;;;21.94;32.92;99758.97;5024580;28;20044;-63
2023/09/21 06:36:15;;;;;;;1.45;0.40;;;;;;;22.95;32.01;99771.19;5019454;28;20040;-65
2023/09/21 06:38:42;;;;;;;1.90;0.70;;;;;;;22.92;31.25;99766.22;5018960;28;20567;-64
2023/09/21 06:41:09;;;;;;;2.53;0.40;;;;;;;22.93;31.20;99757.22;5037109;28;20043;-65
2023/09/21 06:43:38;;;;;;;2.50;0.47;;;;;;;23.52;30.46;99756.91;5019527;28;20041;-65
2023/09/21 06:46:07;;;;;;;1.30;0.55;;;;;;;24.37;29.38;99760.56;5020403;28;20029;-65
2023/09/21 06:48:33;;;;;;;1.40;0.52;;;;;;;23.25;30.80;99759.97;5019009;28;20113;-66
2023/09/21 06:50:58;;;;;;;1.63;0.75;;;;;;;22.17;32.02;99767.19;5019635;28;20037;-66
2023/09/21 06:53:24;;;;;;;4.50;0.85;;;;;;;22.94;31.46;99769.56;5020606;28;20041;-65
2023/09/21 06:55:50;;;;;;;1.73;0.70;;;;;;;22.31;31.96;99767.53;5024184;28;20040;-67
2023/09/21 06:58:16;;;;;;;1.80;0.50;;;;;;;21.05;34.20;99773.53;5020855;28;20167;-68
2023/09/21 07:00:42;;;;;;;3.38;1.42;;;;;;;20.17;36.19;99772.56;5020018;28;20571;-67
2023/09/21 07:03:10;;;;;;;1.00;0.60;;;;;;;19.79;37.36;99770.03;5023299;28;20139;-67
2023/09/21 07:05:36;;;;;;;2.85;0.40;;;;;;;20.47;36.01;99771.41;5019570;28;20037;-67
2023/09/21 07:08:02;;;;;;;3.00;0.50;;;;;;;20.91;35.64;99782.06;5021837;28;20033;-67
2023/09/21 07:10:27;;;;;;;2.35;0.60;;;;;;;21.42;34.31;99769.72;5021698;28;20043;-68
2023/09/21 07:12:53;;;;;;;3.10;0.40;;;;;;;21.92;33.77;99768.13;5023438;28;20029;-67
2023/09/21 07:15:19;;;;;;;1.70;0.50;;;;;;;23.99;30.33;99772.03;5022693;28;20032;-67
2023/09/21 07:17:45;;;;;;;3.30;0.50;;;;;;;23.78;30.71;99767.28;5019526;28;20040;-68
2023/09/21 07:20:12;;;;;;;0.98;0.30;;;;;;;24.69;29.51;99764.84;5028762;28;20029;-67
2023/09/21 07:22:37;;;;;;;2.65;0.60;;;;;;;25.20;28.70;99758.88;5006584;28;20718;-67
2023/09/21 07:25:03;;;;;;;0.98;0.40;;;;;;;23.76;30.04;99755.94;5021819;28;20056;-68
2023/09/21 07:27:29;;;;;;;2.63;0.40;;;;;;;23.45;30.68;99753.25;5017623;28;20048;-67
2023/09/21 07:29:56;;;;;;;3.58;0.50;;;;;;;22.13;32.58;99744.56;5024279;28;20024;-69
2023/09/21 07:32:25;;;;;;;2.20;0.50;;;;;;;21.70;33.32;99749.09;5018304;28;20037;-67
2023/09/21 07:34:51;;;;;;;1.50;0.40;;;;;;;20.90;35.47;99751.19;5020816;28;20510;-68
2023/09/21 07:37:19;;;;;;;1.40;0.38;;;;;;;19.64;37.53;99751.16;5019674;28;20053;-69
2023/09/21 07:39:45;;;;;;;1.10;0.40;;;;;;;20.27;36.66;99755.63;5023843;28;20025;-67
2023/09/21 07:42:11;;;;;;;3.05;0.70;;;;;;;20.13;37.31;99759.63;5019243;28;20255;-67
2023/09/21 07:44:37;;;;;;;2.53;0.60;;;;;;;19.98;37.74;99760.28;5019741;28;20025;-69
2023/09/21 07:47:02;;;;;;;2.22;0.70;;;;;;;20.62;36.54;99755.75;5025117;28;20107;-67
2023/09/21 07:49:28;;;;;;;0.88;0.40;;;;;;;21.86;34.73;99755.47;5021239;28;20063;-70
2023/09/21 07:51:56;;;;;;;2.92;0.63;;;;;;;24.01;31.24;99755.81;5023663;28;20086;-69
2023/09/21 07:54:22;;;;;;;1.70;0.68;;;;;;;22.98;31.87;99764.69;5016212;28;20572;-67
2023/09/21 07:56:48;;;;;;;5.15;0.73;;;;;;;22.93;32.27;99756.41;5020406;28;20044;-67
2023/09/21 07:59:13;;;;;;;0.73;0.20;;;;;;;22.51;33.13;99758.22;5016652;28;20098;-68
2023/09/21 08:01:40;;;;;;;1.23;0.40;;;;;;;21.11;35.17;99756.09;5017742;28;20036;-68
2023/09/21 08:04:07;;;;;;;1.35;0.35;;;;;;;20.38;36.37;99764.38;4982475;28;20036;-68
2023/09/21 08:06:33;;;;;;;2.05;0.43;;;;;;;20.04;37.43;99765.00;5019206;28;20186;-70
2023/09/21 08:08:58;;;;;;;2.15;0.60;;;;;;;19.88;37.58;99760.34;5005961;28;20109;-69
2023/09/21 08:11:24;;;;;;;2.60;0.50;;;;;;;19.80;38.06;99762.91;5022488;28;21353;-70
2023/09/21 08:13:50;;;;;;;0.82;0.40;;;;;;;20.03;38.29;99761.50;5017996;28;20041;-69
2023/09/21 08:16:16;;;;;;;1.80;0.32;;;;;;;19.97;37.88;99758.59;5020939;28;20513;-69
2023/09/21 08:18:42;;;;;;;2.35;0.40;;;;;;;19.44;39.08;99752.19;5003270;28;20771;-69
2023/09/21 08:21:09;;;;;;;3.20;0.40;;;;;;;19.97;38.48;99751.50;5036662;28;20040;-69
2023/09/21 08:23:36;;;;;;;2.28;0.20;;;;;;;19.75;38.12;99750.13;5029071;28;20156;-69
2023/09/21 08:26:02;;;;;;;1.67;0.50;;;;;;;19.68;39.39;99744.56;5025796;28;20087;-70
2023/09/21 08:28:29;;;;;;;1.13;0.35;;;;;;;20.17;38.64;99749.53;5016549;28;20045;-69
2023/09/21 08:30:55;;;;;;;1.92;0.40;;;;;;;20.72;38.59;99756.50;5018890;28;20037;-69
2023/09/21 08:33:22;;;;;;;1.75;0.40;;;;;;;20.77;37.18;99759.50;5032200;28;20037;-69
2023/09/21 08:35:48;;;;;;;6.93;0.55;;;;;;;20.62;38.16;99758.41;5021985;28;20025;-67
2023/09/21 08:38:14;;;;;;;2.35;0.40;;;;;;;20.46;38.00;99765.28;5017854;28;20045;-67
2023/09/21 08:40:46;;;;;;;2.13;0.50;;;;;;;20.19;38.08;99765.31;5016725;28;20036;-70
2023/09/21 08:43:24;;;;;;;2.42;0.45;;;;;;;20.22;38.25;99773.00;5007808;28;20520;-67
2023/09/21 08:45:50;;;;;;;1.38;0.65;;;;;;;20.19;39.18;99767.97;5015797;28;20043;-68
2023/09/21 08:48:22;;;;;;;1.52;0.75;;;;;;;19.46;39.86;99769.63;5017056;28;20034;-67
2023/09/21 08:50:50;;;;;;;1.48;0.88;;;;;;;20.13;39.75;99780.03;5017278;28;20650;-67
2023/09/21 08:53:20;;;;;;;2.20;0.50;;;;;;;20.01;39.53;99781.19;5016913;28;20372;-68
2023/09/21 08:55:52;;;;;;;1.63;0.40;;;;;;;20.10;39.09;99775.84;5018407;28;20036;-68
2023/09/21 08:58:23;;;;;;;4.10;0.57;;;;;;;20.24;38.70;99771.88;5020973;28;20068;-68
2023/09/21 09:00:56;;;;;;;;;;;;;;;20.46;38.94;99772.38;5023181;28;20200;-67
2023/09/21 09:03:25;;;;;;;2.75;0.40;;;;;;;20.70;37.62;99775.22;5036020;28;19916;-68
2023/09/21 09:05:55;;;;;;;1.00;0.40;;;;;;;21.49;36.55;99778.78;5018305;28;20540;-68
2023/09/21 09:08:21;;;;;;;2.05;0.60;;;;;;;21.95;36.01;99783.75;5005334;28;20043;-68
2023/09/21 09:10:47;;;;;;;3.50;0.40;;;;;;;22.03;35.19;99783.78;5020624;28;20127;-68
2023/09/21 09:13:13;;;;;;;2.25;0.30;;;;;;;22.08;35.17;99781.47;5016492;28;20147;-68
2023/09/21 09:15:41;;;;;;;2.05;0.30;;;;;;;22.36;34.78;99789.16;5016084;28;20035;-68
2023/09/21 09:18:07;;;;;;;3.22;0.30;;;;;;;22.54;34.70;99781.88;5020405;28;20564;-68
2023/09/21 09:20:36;;;;;;;2.25;0.50;;;;;;;22.43;34.54;99776.03;5015133;28;20127;-68
2023/09/21 09:23:03;;;;;;;4.22;1.00;;;;;;;22.21;35.11;99773.03;5024207;28;20136;-69
2023/09/21 09:25:29;;;;;;;5.30;0.73;;;;;;;21.88;35.80;99774.75;5014461;28;20055;-69
2023/09/21 09:27:55;;;;;;;1.48;0.45;;;;;;;21.90;35.44;99764.78;5016475;28;20045;-69
2023/09/21 09:30:24;;;;;;;2.78;0.50;;;;;;;21.12;36.89;99781.69;5018091;28;20071;-69
2023/09/21 09:32:52;;;;;;;1.52;0.50;;;;;;;20.83;37.42;99777.50;5017574;28;20042;-68
2023/09/21 09:35:19;;;;;;;3.80;0.70;;;;;;;21.08;36.97;99780.34;5039333;28;20033;-68
2023/09/21 09:37:47;;;;;;;6.47;0.80;;;;;;;21.20;36.87;99783.56;5018032;28;20041;-68
2023/09/21 09:40:14;;;;;;;2.28;0.40;;;;;;;21.53;36.64;99779.28;5019638;28;20028;-69
2023/09/21 09:42:41;;;;;;;3.15;0.40;;;;;;;21.30;36.69;99785.13;5015692;28;20427;-68
2023/09/21 09:45:20;;;;;;;5.18;1.27;;;;;;;20.69;37.83;99786.84;5019890;28;20123;-69
2023/09/21 09:47:57;;;;;;;1.80;0.50;;;;;;;20.64;38.34;99786.50;5016561;28;20927;-68
2023/09/21 09:50:33;;;;;;;3.05;0.93;;;;;;;20.46;38.41;99780.34;5019048;28;20056;-68
2023/09/21 09:53:10;;;;;;;3.92;0.60;;;;;;;20.50;38.40;99787.84;5021510;28;20057;-68
2023/09/21 09:55:41;;;;;;;4.70;0.70;;;;;;;20.66;37.85;99783.66;5012547;28;20094;-68
2023/09/21 09:58:08;;;;;;;3.40;0.52;;;;;;;20.68;38.19;99790.47;5023756;28;20160;-68
2023/09/21 10:00:35;;;;;;;6.85;0.70;;;;;;;20.55;38.72;99787.38;5016100;28;20044;-69
2023/09/21 10:03:03;;;;;;;1.92;0.57;;;;;;;20.91;38.56;99784.72;5021643;28;20034;-69
2023/09/21 10:05:30;;;;;;;4.60;2.00;;;;;;;20.79;38.58;99789.41;5030846;28;20037;-68
2023/09/21 10:08:00;;;;;;;2.78;0.90;;;;;;;19.90;39.62;99783.09;5019050;28;20038;-69
2023/09/21 10:10:30;;;;;;;4.13;0.70;;;;;;;20.46;39.50;99785.66;5022109;28;20509;-69
2023/09/21 10:12:57;;;;;;;3.38;0.80;;;;;;;20.72;40.10;99785.72;5021026;28;20529;-68
2023/09/21 10:15:26;;;;;;;1.73;0.70;;;;;;;20.29;42.00;99796.13;5020116;28;20672;-69
2023/09/21 10:17:55;;;;;;;5.00;0.82;;;;;;;20.06;42.04;99806.31;5020211;28;20985;-68
2023/09/21 10:20:34;;;;;;;3.38;0.73;;;;;;;18.91;44.54;99808.38;5020428;28;20062;-69
2023/09/21 10:23:04;;;;;;;3.55;0.90;;;;;;;19.12;45.61;99810.84;5022354;28;20079;-68
2023/09/21 10:25:37;;;;;;;2.88;0.80;;;;;;;18.38;47.18;99813.09;5024096;28;20043;-68
2023/09/21 10:28:27;;;;;;;2.65;0.98;;;;;;;18.68;47.25;99819.25;5024756;28;20594;-68
2023/09/21 10:30:53;;;;;;;2.60;0.85;;;;;;;18.53;47.86;99815.34;5018670;28;20514;-68
2023/09/21 10:33:19;;;;;;;3.17;0.85;;;;;;;18.63;47.25;99814.38;5020216;28;20118;-68
2023/09/21 10:35:46;;;;;;;2.50;0.82;;;;;;;18.62;47.18;99820.63;5019340;28;20041;-68
2023/09/21 10:38:13;;;;;;;3.45;1.25;;;;;;;17.85;48.63;99831.91;5019980;28;20033;-69
2023/09/21 10:40:40;;;;;;;4.63;0.93;;;;;;;17.92;49.09;99821.63;5017810;28;20075;-69
2023/09/21 10:43:38;;;;;;;1.83;1.10;;;;;;;17.49;50.34;99826.16;5021775;28;20068;-68
2023/09/21 10:46:17;;;;;;;3.70;1.90;;;;;;;17.65;49.92;99834.47;5015176;28;20073;-69
2023/09/21 10:48:49;;;;;;;3.65;1.25;;;;;;;17.81;50.52;99830.50;5004160;28;20053;-69
2023/09/21 10:51:14;;;;;;;4.90;0.90;;;;;;;17.91;49.73;99831.34;5021129;28;20103;-69
2023/09/21 10:53:41;;;;;;;5.03;1.10;;;;;;;17.76;49.89;99838.81;5015682;28;21040;-66
2023/09/21 10:56:06;;;;;;;2.53;1.20;;;;;;;17.68;50.31;99840.44;5039838;28;20067;-69
2023/09/21 10:58:32;;;;;;;3.70;1.20;;;;;;;17.51;50.51;99818.94;5018399;28;20132;-69
2023/09/21 11:01:01;;;;;;;2.00;1.15;;;;;;;17.00;51.33;99812.69;5037286;28;20502;-69
2023/09/21 11:03:27;;;;;;;4.78;1.30;;;;;;;17.57;50.05;99826.34;5021397;28;20053;-68
2023/09/21 11:05:54;;;;;;;3.08;1.52;;;;;;;17.74;49.81;99819.63;5038378;28;20041;-68
2023/09/21 11:08:24;;;;;;;2.97;0.90;;;;;;;17.74;50.32;99829.31;5020714;28;20040;-69
2023/09/21 11:10:50;;;;;;;2.85;1.02;;;;;;;17.64;50.24;99824.84;5000078;28;20036;-70
2023/09/21 11:13:18;;;;;;;3.53;1.25;;;;;;;17.92;50.29;99819.81;5020753;28;20033;-68
2023/09/21 11:15:45;;;;;;;3.75;1.63;;;;;;;17.81;50.23;99819.91;5017589;28;20036;-68
2023/09/21 11:18:10;;;;;;;2.63;0.75;;;;;;;17.29;51.22;99830.50;5037941;28;20037;-68
2023/09/21 11:20:36;;;;;;;1.63;0.90;;;;;;;17.54;50.87;99829.25;5001173;28;20749;-67
2023/09/21 11:23:03;;;;;;;4.45;1.35;;;;;;;17.42;51.68;99832.91;5019241;28;20040;-68
2023/09/21 11:25:28;;;;;;;2.58;1.30;;;;;;;17.15;52.40;99836.94;5037093;28;20060;-67
2023/09/21 11:27:58;;;;;;;3.47;1.17;;;;;;;17.53;51.17;99827.56;5017528;28;20321;-69
2023/09/21 11:30:25;;;;;;;2.55;1.10;;;;;;;17.78;50.94;99826.31;5020778;28;20034;-67
2023/09/21 11:32:52;;;;;;;2.47;1.75;;;;;;;17.27;51.53;99832.44;5017192;28;20110;-68
2023/09/21 11:35:19;;;;;;;2.13;1.00;;;;;;;17.31;51.13;99830.34;5023615;28;20033;-68
2023/09/21 11:37:50;;;;;;;1.90;0.68;;;;;;;16.70;51.79;99823.94;5010274;28;20057;-68
2023/09/21 11:40:21;;;;;;;2.83;1.00;;;;;;;17.37;50.98;99821.91;5020220;28;20083;-68
2023/09/21 11:42:48;;;;;;;1.80;0.47;;;;;;;17.55;50.64;99814.25;5011382;28;20037;-68
2023/09/21 11:45:17;;;;;;;2.03;0.68;;;;;;;17.61;49.98;99809.25;5018966;28;20068;-68
2023/09/21 11:47:50;;;;;;;2.00;0.60;;;;;;;17.71;49.45;99813.75;5014772;28;20076;-68
2023/09/21 11:50:26;;;;;;;2.28;0.70;;;;;;;18.06;49.57;99811.47;5021131;28;20044;-68
2023/09/21 11:52:54;;;;;;;5.75;1.25;;;;;;;17.99;48.92;99807.72;5021399;28;20047;-69
2023/09/21 11:55:27;;;;;;;2.35;1.00;;;;;;;18.45;48.34;99801.00;5021247;28;20094;-68